Terminal Aerodrome Forecast
Issued by NWS

Home | Current Version | Previous Version | Text Only | Print | Product List | Glossary On
Versions: 1 2 3 4 5 6 7 8 9 10 11 12 13 14 15 16 17 18 19
000
FTUS46 KMTR 221100 AAA
TAFOAK
TAF AMD
KOAK 221144Z 2212/2318 00000KT 2SM BR OVC005
      TEMPO 2213/2217 1/2SM FG OVC002
     FM222000 31005KT P6SM BKN015
     FM222300 29007KT P6SM BKN025
     FM230300 24004KT P6SM OVC015
     FM231200 VRB03KT 4SM BR OVC015=

USA.gov is the U.S. government's official web portal to all federal, state and local government web resources and services.